Decoded Metar for OICC (BAKHTARAN in IRAN) (IATA:KSH) | Meteo·Mobile Aviation Weather
aviador You're here:

OICC Decoded Metar

BAKHTARAN in IRAN
Report Time2019-02-22 13:30:00
UTC Time2019-02-22 14:05:01
Flight Rules vfr VFR
Wind300° at 06 kt
W.Decomp.*RWY 29: 6.0 kt HW 0.7 kt RCW
W.Rank300° ranks 2
Current wind is below 300° avg. (8.0)
Visibility9999 m
Phenomena:N/A
Clouds:Scattered TCU 040 Hf
Expected CloudBase > 5,200 ft AGL from Temp-Dew spread
CeilingNone
Temp09°C (ISA +3)
Dew Point-4°C (40% RH)
AAT4.4°C
QNH1018 hPa
Density Alt4,547 ft
Elevation4,337 ft
Report Wrong Elevation
Raw Report
OICC 221330Z 30006KT 9999 SCT040TCU 09/M04 Q1018 A3007 NOSIG=

Extra information for OICC:More info

Metar Taf Metar & Taf Last 4 Metars F.Rules Stats Wind Profile Meteogram Temp Stats Airport Information Weather charts Add Link Nearby VenuesMetar ALERT Operation Metar Decoded Social comments